Terminal Aerodrome Forecast
Issued by NWS Louisville, KY

Current Version | Previous Version | Text Only | Print | Product List | Glossary On
Versions: 1 2 3 4 5 6 7 8 9 10 11 12 13 14 15 16 17 18 19 20 21 22 23
000
FTUS43 KLMK 251100
TAFLEX
TAF
KLEX 251120Z 2512/2612 24010KT P6SM SCT015 BKN025
      TEMPO 2519/2521 SCT028
     FM252100 22009KT P6SM SCT030
     FM260000 19006KT P6SM SKC=

USA.gov is the U.S. government's official web portal to all federal, state and local government web resources and services.